Kezdőlap
METAR-TAF:

METAR-TAF

Repülőterek :

Spencer Municipal Airport

Spencer, Iowa, Amerikai Egyesült Államok

földrajzi szélesség: 43-09-56N, földrajzi hosszúság: 095-12-10W, magasság: 408 m

Jelenlegi meteorológiai megfigyelések

A jelentés 41 perccel ezelõtt készült, 16:53 UTC
Dél-délnyugati szél 15 kt széllökések: 22 kt
Hőmérséklet 31°C
Páratartalom 59%
Légköri nyomás 1016 hPa
Látótávolság: 16.1 km
Kevés felhő 2200 lábon

METAR: KSPW 131653Z AUTO 20015G22KT 10SM FEW022 31/22 A3000 RMK AO2 SLP147 T03110217 TSNO

Idő: 12:34 (17:34 UTC)


TAF: hiányzik

Meteorológiai megfigyelések és előrejelzések több, mint 4000 repülőtéren (METAR és TAF jelentéseket).

A térképen piros és sárga pontok jelzik az elérhető meteorológiai állomásokat.

Mozgassa az egeret a pont fölött, hogy megjelenjen az állomás neve.

Azután kattintson az időjárási megfigyelések és előrejelzések megtekintéséhez.

A térkép megváltoztatása: kattintson a fekete keresztel jelölt zöld gombra ráközelítéshez, a vonallal jelölt zöld gombra távolításhoz, vagy a zöld nyilakra a szomszédos térképek eléréséhez.


METAR-TAF: